Nearby METAR Reports

Meteorological Terminal Air Report (METAR)

K3I2 - Pt Pleasant, West Virginia, USA
Distance from station: S 11mi, 18km
Updated: Sat, 21-Jul-2018 10:15pm EDT
Clear
Clear
 Wind from calm
Wind: Calm
Temperature: 68°F , 20°C
Dew Point: 68°F , 20°C
Humidity: 100%
Barometer: 29.76 inHg , 1007.8 hPa
Clouds: Clear
Visibility: 10 miles , 16 km
2018/07/22 02:15 K3I2 220215Z AUTO 00000KT 10SM CLR 20/20 A2976 RMK AO2 T02020200
KUNI - Athens, Ohio, USA
Distance from station: NW 13mi, 21km
Updated: Sat, 21-Jul-2018 10:15pm EDT
Partly cloudy
Partly cloudy
 Wind from calm
Wind: Calm
Temperature: 68°F , 20°C
Dew Point: 68°F , 20°C
Humidity: 100%
Barometer: 29.75 inHg , 1007.5 hPa
Clouds: Partly cloudy
Visibility: 10 miles , 16 km
Cloud details: Partly cloudy 12000 ft
2018/07/22 02:15 KUNI 220215Z AUTO 00000KT 10SM SCT120 20/20 A2975 RMK AO2 T01950195
 
KPKB - Parkersburg, West Virginia, USA
Distance from station: ENE 40mi, 65km
Updated: Sat, 21-Jul-2018 9:53pm EDT
Rain, Mostly cloudy
Rain, Mostly cloudy
 Wind from W
Wind: W 5 mph , 7 km/h
Barometer: 29.79 inHg , 1008.8 hPa
Summary: Rain
Clouds: Mostly cloudy
Visibility: 10 miles , 16 km
Cloud details: Mostly cloudy 2500 ft
2018/07/22 01:53 KPKB 220153Z 26004KT 10SM RA BKN025 A2979 RMK LGT DSNT N
KCRW - Charleston, West Virginia, USA
Distance from station: SSE 55mi, 88km
Updated: Sat, 21-Jul-2018 9:54pm EDT
Partly cloudy
Partly cloudy
 Wind from WSW
Wind: WSW 5 mph , 7 km/h
Temperature: 73°F , 23°C
Dew Point: 64°F , 18°C
Humidity: 74%
Barometer: 29.76 inHg , 1007.8 hPa
Clouds: Partly cloudy
Visibility: 10 miles , 16 km
Cloud details: Partly cloudy 8000 ft
Partly cloudy 11000 ft
2018/07/22 01:54 KCRW 220154Z 24004KT 10SM SCT080 SCT110 23/18 A2976 RMK AO2 TSE35 SLP069 TS MOVD E CB DSNT E-S T02280183 $
 
KHTS - Huntington, West Virginia, USA
Distance from station: SSW 55mi, 89km
Updated: Sat, 21-Jul-2018 9:51pm EDT
Light rain, Mostly cloudy
Light rain, Mostly cloudy
 Wind from WSW
Wind: WSW 9 mph , 15 km/h
Temperature: 70°F , 21°C
Dew Point: 64°F , 18°C
Humidity: 83%
Barometer: 29.76 inHg , 1007.8 hPa
Summary: Light rain
Clouds: Mostly cloudy
Visibility: 10 miles , 16 km
Cloud details: Few Clouds 2600 ft
Partly cloudy 3800 ft
Mostly cloudy 6000 ft
2018/07/22 01:51 KHTS 220151Z 24008KT 10SM -RA FEW026 SCT038 BKN060 21/18 A2976 RMK AO2 RAB50 SLP072 P0000 T02060178
KLHQ - Lancaster, Ohio, USA
Distance from station: NW 56mi, 91km
Updated: Sat, 21-Jul-2018 9:53pm EDT
Few Clouds
Few Clouds
 Wind from E
Wind: E 5 mph , 7 km/h
Temperature: 66°F , 19°C
Dew Point: 66°F , 19°C
Humidity: 100%
Barometer: 29.75 inHg , 1007.5 hPa
Clouds: Few Clouds
Visibility: 10 miles , 16 km
Cloud details: Few Clouds 7000 ft
2018/07/22 01:53 KLHQ 220153Z AUTO 09004KT 10SM FEW070 19/19 A2975 RMK AO2 SLP068 T01940189
 
KZZV - Zanesville, Ohio, USA
Distance from station: N 61mi, 99km
Updated: Sat, 21-Jul-2018 10:22pm EDT
Light rain, Overcast
Light rain, Overcast
 Wind from SSW
Wind: SSW 5 mph , 7 km/h
Temperature: 70°F , 21°C
Dew Point: 66°F , 19°C
Humidity: 88%
Barometer: 29.77 inHg , 1008.1 hPa
Summary: Light rain
Clouds: Overcast
Visibility: 8 miles , 13 km
Cloud details: Mostly cloudy 3000 ft
Overcast 10000 ft
2018/07/22 02:22 KZZV 220222Z AUTO 21004KT 8SM -RA BKN030 OVC100 21/19 A2977 RMK AO2 P0002 T02110189
KLCK - Rickenbacker Ang, Ohio, USA
Distance from station: NW 68mi, 110km
Updated: Sat, 21-Jul-2018 10:15pm EDT
Clear
Clear
 Wind from calm
Wind: Calm
Temperature: 66°F , 19°C
Dew Point: 66°F , 19°C
Humidity: 100%
Barometer: 29.74 inHg , 1007.1 hPa
Clouds: Clear
Visibility: 10 miles , 16 km
2018/07/22 02:15 KLCK 220215Z AUTO 00000KT 10SM CLR 19/19 A2974 RMK AO2 T01860187
 
KVTA - Newark, Ohio, USA
Distance from station: NNW 68mi, 110km
Updated: Sat, 21-Jul-2018 9:54pm EDT
Few Clouds
Few Clouds
 Wind from calm
Wind: Calm
Temperature: 66°F , 19°C
Dew Point: 66°F , 19°C
Humidity: 100%
Barometer: 29.75 inHg , 1007.5 hPa
Clouds: Few Clouds
Visibility: 9 miles , 14 km
Cloud details: Few Clouds 3500 ft
2018/07/22 01:54 KVTA 220154Z AUTO 00000KT 9SM FEW035 19/19 A2975 RMK AO2 LTG DSNT SE RAE20 SLP069 P0001 T01940189